sensor_id;sensor_type;location;lat;lon;timestamp;P1;durP1;ratioP1;P2;durP2;ratioP2
39996;SDS011;25688;52.338;21.072;2022-08-21T00:00:23;10.85;;;7.07;;
39996;SDS011;25688;52.338;21.072;2022-08-21T00:10:34;12.77;;;7.30;;
39996;SDS011;25688;52.338;21.072;2022-08-21T00:13:01;9.73;;;7.25;;
39996;SDS011;25688;52.338;21.072;2022-08-21T00:15:31;13.13;;;7.55;;
39996;SDS011;25688;52.338;21.072;2022-08-21T00:18:11;11.63;;;7.57;;
39996;SDS011;25688;52.338;21.072;2022-08-21T00:20:53;14.30;;;7.68;;
39996;SDS011;25688;52.338;21.072;2022-08-21T00:23:19;10.90;;;7.65;;
39996;SDS011;25688;52.338;21.072;2022-08-21T00:25:48;15.00;;;7.72;;
39996;SDS011;25688;52.338;21.072;2022-08-21T00:28:14;13.10;;;7.55;;
39996;SDS011;25688;52.338;21.072;2022-08-21T00:31:03;11.88;;;7.55;;
39996;SDS011;25688;52.338;21.072;2022-08-21T00:33:29;11.18;;;6.82;;
39996;SDS011;25688;52.338;21.072;2022-08-21T00:35:55;10.20;;;7.53;;
39996;SDS011;25688;52.338;21.072;2022-08-21T00:38:22;11.98;;;7.88;;
39996;SDS011;25688;52.338;21.072;2022-08-21T00:40:50;12.40;;;8.57;;
39996;SDS011;25688;52.338;21.072;2022-08-21T00:43:28;12.30;;;8.10;;
39996;SDS011;25688;52.338;21.072;2022-08-21T00:45:59;11.02;;;8.57;;
39996;SDS011;25688;52.338;21.072;2022-08-21T00:48:29;13.68;;;9.10;;
39996;SDS011;25688;52.338;21.072;2022-08-21T00:51:03;11.63;;;8.90;;
39996;SDS011;25688;52.338;21.072;2022-08-21T00:53:34;12.68;;;9.07;;
39996;SDS011;25688;52.338;21.072;2022-08-21T01:01:31;14.27;;;9.05;;
39996;SDS011;25688;52.338;21.072;2022-08-21T01:03:58;12.55;;;9.23;;
39996;SDS011;25688;52.338;21.072;2022-08-21T01:06:27;15.38;;;9.50;;
39996;SDS011;25688;52.338;21.072;2022-08-21T01:09:00;14.15;;;10.10;;
39996;SDS011;25688;52.338;21.072;2022-08-21T01:11:26;12.45;;;9.68;;
39996;SDS011;25688;52.338;21.072;2022-08-21T01:13:52;16.80;;;10.23;;
39996;SDS011;25688;52.338;21.072;2022-08-21T01:16:20;14.38;;;10.27;;
39996;SDS011;25688;52.338;21.072;2022-08-21T01:18:47;14.60;;;10.60;;
39996;SDS011;25688;52.338;21.072;2022-08-21T01:21:17;15.82;;;11.73;;
39996;SDS011;25688;52.338;21.072;2022-08-21T01:23:56;16.70;;;11.55;;
39996;SDS011;25688;52.338;21.072;2022-08-21T01:26:41;15.93;;;11.00;;
39996;SDS011;25688;52.338;21.072;2022-08-21T01:29:14;15.30;;;11.00;;
39996;SDS011;25688;52.338;21.072;2022-08-21T01:31:57;14.57;;;10.25;;
39996;SDS011;25688;52.338;21.072;2022-08-21T01:34:38;15.45;;;10.00;;
39996;SDS011;25688;52.338;21.072;2022-08-21T01:37:09;14.90;;;9.68;;
39996;SDS011;25688;52.338;21.072;2022-08-21T01:39:35;13.43;;;9.07;;
39996;SDS011;25688;52.338;21.072;2022-08-21T01:42:02;11.40;;;8.75;;
39996;SDS011;25688;52.338;21.072;2022-08-21T01:44:29;13.85;;;9.35;;
39996;SDS011;25688;52.338;21.072;2022-08-21T01:46:55;10.65;;;8.05;;
39996;SDS011;25688;52.338;21.072;2022-08-21T01:49:31;10.68;;;7.55;;
39996;SDS011;25688;52.338;21.072;2022-08-21T01:52:10;12.40;;;7.40;;
39996;SDS011;25688;52.338;21.072;2022-08-21T01:54:37;17.48;;;10.18;;
39996;SDS011;25688;52.338;21.072;2022-08-21T01:59:52;19.10;;;13.63;;
39996;SDS011;25688;52.338;21.072;2022-08-21T02:02:25;21.15;;;14.98;;
39996;SDS011;25688;52.338;21.072;2022-08-21T02:04:50;20.08;;;15.25;;
39996;SDS011;25688;52.338;21.072;2022-08-21T02:07:16;18.88;;;14.98;;
39996;SDS011;25688;52.338;21.072;2022-08-21T02:09:46;18.13;;;14.15;;
39996;SDS011;25688;52.338;21.072;2022-08-21T02:12:18;22.17;;;16.20;;
39996;SDS011;25688;52.338;21.072;2022-08-21T02:14:44;24.08;;;17.02;;
39996;SDS011;25688;52.338;21.072;2022-08-21T02:17:09;19.13;;;14.43;;
39996;SDS011;25688;52.338;21.072;2022-08-21T02:20:03;18.45;;;13.80;;
39996;SDS011;25688;52.338;21.072;2022-08-21T02:22:29;20.20;;;15.27;;
39996;SDS011;25688;52.338;21.072;2022-08-21T02:25:01;17.83;;;13.52;;
39996;SDS011;25688;52.338;21.072;2022-08-21T02:27:27;15.20;;;12.25;;
39996;SDS011;25688;52.338;21.072;2022-08-21T02:29:57;11.30;;;9.50;;
39996;SDS011;25688;52.338;21.072;2022-08-21T02:32:28;8.85;;;7.30;;
39996;SDS011;25688;52.338;21.072;2022-08-21T02:34:54;7.63;;;5.50;;
39996;SDS011;25688;52.338;21.072;2022-08-21T02:37:20;242.45;;;15.65;;
39996;SDS011;25688;52.338;21.072;2022-08-21T02:39:45;20.13;;;6.43;;
39996;SDS011;25688;52.338;21.072;2022-08-21T02:42:11;248.20;;;20.40;;
39996;SDS011;25688;52.338;21.072;2022-08-21T02:44:37;147.02;;;17.13;;
39996;SDS011;25688;52.338;21.072;2022-08-21T02:47:06;37.80;;;11.65;;
39996;SDS011;25688;52.338;21.072;2022-08-21T02:49:35;18.55;;;13.40;;
39996;SDS011;25688;52.338;21.072;2022-08-21T02:52:53;18.52;;;14.07;;
39996;SDS011;25688;52.338;21.072;2022-08-21T02:55:19;21.50;;;13.25;;
39996;SDS011;25688;52.338;21.072;2022-08-21T02:57:58;18.08;;;13.50;;
39996;SDS011;25688;52.338;21.072;2022-08-21T03:02:53;14.07;;;11.23;;
39996;SDS011;25688;52.338;21.072;2022-08-21T03:05:21;14.95;;;11.25;;
39996;SDS011;25688;52.338;21.072;2022-08-21T03:07:48;14.77;;;9.77;;
39996;SDS011;25688;52.338;21.072;2022-08-21T03:10:21;9.35;;;7.43;;
39996;SDS011;25688;52.338;21.072;2022-08-21T03:12:47;9.68;;;7.75;;
39996;SDS011;25688;52.338;21.072;2022-08-21T03:15:15;10.85;;;8.23;;
39996;SDS011;25688;52.338;21.072;2022-08-21T03:17:51;10.57;;;8.93;;
39996;SDS011;25688;52.338;21.072;2022-08-21T03:20:19;11.15;;;8.35;;
39996;SDS011;25688;52.338;21.072;2022-08-21T03:23:00;9.90;;;7.80;;
39996;SDS011;25688;52.338;21.072;2022-08-21T03:25:40;10.48;;;7.63;;
39996;SDS011;25688;52.338;21.072;2022-08-21T03:28:16;14.68;;;12.27;;
39996;SDS011;25688;52.338;21.072;2022-08-21T03:30:44;20.70;;;14.43;;
39996;SDS011;25688;52.338;21.072;2022-08-21T03:33:12;21.15;;;15.38;;
39996;SDS011;25688;52.338;21.072;2022-08-21T03:35:45;20.52;;;14.02;;
39996;SDS011;25688;52.338;21.072;2022-08-21T03:38:14;24.05;;;15.82;;
39996;SDS011;25688;52.338;21.072;2022-08-21T03:40:50;18.10;;;13.65;;
39996;SDS011;25688;52.338;21.072;2022-08-21T03:43:19;18.63;;;15.10;;
39996;SDS011;25688;52.338;21.072;2022-08-21T03:45:45;27.33;;;15.95;;
39996;SDS011;25688;52.338;21.072;2022-08-21T03:48:16;22.58;;;17.33;;
39996;SDS011;25688;52.338;21.072;2022-08-21T03:50:45;24.73;;;17.27;;
39996;SDS011;25688;52.338;21.072;2022-08-21T03:53:14;20.83;;;15.65;;
39996;SDS011;25688;52.338;21.072;2022-08-21T03:55:41;18.67;;;15.25;;
39996;SDS011;25688;52.338;21.072;2022-08-21T03:58:07;20.42;;;16.00;;
39996;SDS011;25688;52.338;21.072;2022-08-21T04:00:39;23.65;;;15.43;;
39996;SDS011;25688;52.338;21.072;2022-08-21T04:05:33;20.92;;;14.70;;
39996;SDS011;25688;52.338;21.072;2022-08-21T04:14:16;19.88;;;15.98;;
39996;SDS011;25688;52.338;21.072;2022-08-21T04:16:42;77.05;;;15.63;;
39996;SDS011;25688;52.338;21.072;2022-08-21T04:19:11;28.48;;;13.60;;
39996;SDS011;25688;52.338;21.072;2022-08-21T04:21:38;21.85;;;14.35;;
39996;SDS011;25688;52.338;21.072;2022-08-21T04:24:05;22.23;;;16.45;;
39996;SDS011;25688;52.338;21.072;2022-08-21T04:26:32;20.92;;;16.25;;
39996;SDS011;25688;52.338;21.072;2022-08-21T04:28:59;25.17;;;16.35;;
39996;SDS011;25688;52.338;21.072;2022-08-21T04:31:26;21.63;;;15.73;;
39996;SDS011;25688;52.338;21.072;2022-08-21T04:33:53;19.05;;;14.13;;
39996;SDS011;25688;52.338;21.072;2022-08-21T04:36:20;19.85;;;13.52;;
39996;SDS011;25688;52.338;21.072;2022-08-21T04:38:45;17.90;;;13.10;;
39996;SDS011;25688;52.338;21.072;2022-08-21T04:41:11;18.40;;;13.63;;
39996;SDS011;25688;52.338;21.072;2022-08-21T04:43:40;18.83;;;13.05;;
39996;SDS011;25688;52.338;21.072;2022-08-21T04:46:06;18.45;;;14.13;;
39996;SDS011;25688;52.338;21.072;2022-08-21T04:48:40;18.25;;;14.38;;
39996;SDS011;25688;52.338;21.072;2022-08-21T04:51:15;20.13;;;13.82;;
39996;SDS011;25688;52.338;21.072;2022-08-21T04:53:44;17.20;;;13.15;;
39996;SDS011;25688;52.338;21.072;2022-08-21T04:56:46;17.50;;;12.35;;
39996;SDS011;25688;52.338;21.072;2022-08-21T04:59:39;16.52;;;11.60;;
39996;SDS011;25688;52.338;21.072;2022-08-21T05:02:23;15.55;;;12.52;;
39996;SDS011;25688;52.338;21.072;2022-08-21T05:04:50;16.35;;;11.00;;
39996;SDS011;25688;52.338;21.072;2022-08-21T05:07:22;14.95;;;10.20;;
39996;SDS011;25688;52.338;21.072;2022-08-21T05:09:51;11.57;;;8.77;;
39996;SDS011;25688;52.338;21.072;2022-08-21T05:12:18;13.23;;;9.30;;
39996;SDS011;25688;52.338;21.072;2022-08-21T05:15:04;12.10;;;8.45;;
39996;SDS011;25688;52.338;21.072;2022-08-21T05:17:30;11.40;;;8.02;;
39996;SDS011;25688;52.338;21.072;2022-08-21T05:19:56;9.20;;;8.07;;
39996;SDS011;25688;52.338;21.072;2022-08-21T05:22:22;10.07;;;7.32;;
39996;SDS011;25688;52.338;21.072;2022-08-21T05:24:56;8.50;;;7.00;;
39996;SDS011;25688;52.338;21.072;2022-08-21T05:27:22;9.43;;;6.57;;
39996;SDS011;25688;52.338;21.072;2022-08-21T05:29:47;10.23;;;7.45;;
39996;SDS011;25688;52.338;21.072;2022-08-21T05:32:13;12.73;;;6.50;;
39996;SDS011;25688;52.338;21.072;2022-08-21T05:34:39;10.35;;;6.40;;
39996;SDS011;25688;52.338;21.072;2022-08-21T05:37:05;10.93;;;6.80;;
39996;SDS011;25688;52.338;21.072;2022-08-21T05:39:34;10.25;;;6.18;;
39996;SDS011;25688;52.338;21.072;2022-08-21T05:41:59;9.63;;;6.80;;
39996;SDS011;25688;52.338;21.072;2022-08-21T05:44:25;10.70;;;6.47;;
39996;SDS011;25688;52.338;21.072;2022-08-21T05:46:51;10.88;;;6.45;;
39996;SDS011;25688;52.338;21.072;2022-08-21T05:49:16;11.65;;;6.53;;
39996;SDS011;25688;52.338;21.072;2022-08-21T05:55:04;11.15;;;6.47;;
39996;SDS011;25688;52.338;21.072;2022-08-21T05:57:30;12.52;;;6.80;;
39996;SDS011;25688;52.338;21.072;2022-08-21T05:59:55;9.60;;;5.55;;
39996;SDS011;25688;52.338;21.072;2022-08-21T06:02:21;10.82;;;6.00;;
39996;SDS011;25688;52.338;21.072;2022-08-21T06:04:47;8.68;;;5.80;;
39996;SDS011;25688;52.338;21.072;2022-08-21T06:07:13;11.13;;;6.55;;
39996;SDS011;25688;52.338;21.072;2022-08-21T06:09:40;7.57;;;5.68;;
39996;SDS011;25688;52.338;21.072;2022-08-21T06:12:09;9.70;;;6.00;;
39996;SDS011;25688;52.338;21.072;2022-08-21T06:14:37;18.38;;;6.00;;
39996;SDS011;25688;52.338;21.072;2022-08-21T06:17:07;10.65;;;5.95;;
39996;SDS011;25688;52.338;21.072;2022-08-21T06:22:01;8.10;;;6.13;;
39996;SDS011;25688;52.338;21.072;2022-08-21T06:24:27;9.10;;;6.30;;
39996;SDS011;25688;52.338;21.072;2022-08-21T06:26:54;7.90;;;5.35;;
39996;SDS011;25688;52.338;21.072;2022-08-21T06:29:20;8.57;;;5.55;;
39996;SDS011;25688;52.338;21.072;2022-08-21T06:31:48;7.82;;;5.75;;
39996;SDS011;25688;52.338;21.072;2022-08-21T06:34:14;9.02;;;5.95;;
39996;SDS011;25688;52.338;21.072;2022-08-21T06:36:43;9.60;;;6.00;;
39996;SDS011;25688;52.338;21.072;2022-08-21T06:39:09;8.13;;;6.32;;
39996;SDS011;25688;52.338;21.072;2022-08-21T06:41:35;10.98;;;6.20;;
39996;SDS011;25688;52.338;21.072;2022-08-21T06:44:01;8.02;;;5.40;;
39996;SDS011;25688;52.338;21.072;2022-08-21T06:46:28;9.20;;;5.97;;
39996;SDS011;25688;52.338;21.072;2022-08-21T06:48:57;12.90;;;6.50;;
39996;SDS011;25688;52.338;21.072;2022-08-21T06:51:26;7.93;;;5.65;;
39996;SDS011;25688;52.338;21.072;2022-08-21T06:53:56;8.85;;;6.55;;
39996;SDS011;25688;52.338;21.072;2022-08-21T06:56:21;7.45;;;5.65;;
39996;SDS011;25688;52.338;21.072;2022-08-21T06:58:51;8.70;;;5.57;;
39996;SDS011;25688;52.338;21.072;2022-08-21T07:01:17;9.98;;;6.07;;
39996;SDS011;25688;52.338;21.072;2022-08-21T07:03:45;8.65;;;5.50;;
39996;SDS011;25688;52.338;21.072;2022-08-21T07:06:11;8.68;;;5.43;;
39996;SDS011;25688;52.338;21.072;2022-08-21T07:08:39;9.25;;;6.25;;
39996;SDS011;25688;52.338;21.072;2022-08-21T07:11:23;8.50;;;5.95;;
39996;SDS011;25688;52.338;21.072;2022-08-21T07:13:49;9.43;;;5.72;;
39996;SDS011;25688;52.338;21.072;2022-08-21T07:16:17;8.30;;;5.70;;
39996;SDS011;25688;52.338;21.072;2022-08-21T07:18:43;8.32;;;5.50;;
39996;SDS011;25688;52.338;21.072;2022-08-21T07:21:18;9.95;;;5.95;;
39996;SDS011;25688;52.338;21.072;2022-08-21T07:23:45;7.78;;;5.97;;
39996;SDS011;25688;52.338;21.072;2022-08-21T07:26:19;7.07;;;5.68;;
39996;SDS011;25688;52.338;21.072;2022-08-21T07:28:49;7.55;;;5.40;;
39996;SDS011;25688;52.338;21.072;2022-08-21T07:31:18;10.23;;;6.38;;
39996;SDS011;25688;52.338;21.072;2022-08-21T07:33:46;8.07;;;5.75;;
39996;SDS011;25688;52.338;21.072;2022-08-21T07:36:12;8.35;;;5.90;;
39996;SDS011;25688;52.338;21.072;2022-08-21T07:38:38;7.35;;;5.75;;
39996;SDS011;25688;52.338;21.072;2022-08-21T07:41:15;8.73;;;5.35;;
39996;SDS011;25688;52.338;21.072;2022-08-21T07:43:46;9.90;;;5.65;;
39996;SDS011;25688;52.338;21.072;2022-08-21T07:46:12;11.65;;;5.57;;
39996;SDS011;25688;52.338;21.072;2022-08-21T07:48:38;7.55;;;5.85;;
39996;SDS011;25688;52.338;21.072;2022-08-21T07:51:08;7.65;;;5.50;;
39996;SDS011;25688;52.338;21.072;2022-08-21T07:56:02;9.48;;;5.50;;
39996;SDS011;25688;52.338;21.072;2022-08-21T07:58:29;7.78;;;5.43;;
39996;SDS011;25688;52.338;21.072;2022-08-21T08:00:55;11.25;;;5.90;;
39996;SDS011;25688;52.338;21.072;2022-08-21T08:03:21;9.45;;;6.05;;
39996;SDS011;25688;52.338;21.072;2022-08-21T08:05:47;10.73;;;5.85;;
39996;SDS011;25688;52.338;21.072;2022-08-21T08:08:13;8.35;;;6.03;;
39996;SDS011;25688;52.338;21.072;2022-08-21T08:10:38;8.20;;;5.57;;
39996;SDS011;25688;52.338;21.072;2022-08-21T08:13:10;8.27;;;6.03;;
39996;SDS011;25688;52.338;21.072;2022-08-21T08:15:36;12.20;;;5.65;;
39996;SDS011;25688;52.338;21.072;2022-08-21T08:18:11;8.23;;;5.78;;
39996;SDS011;25688;52.338;21.072;2022-08-21T08:20:37;7.45;;;5.25;;
39996;SDS011;25688;52.338;21.072;2022-08-21T08:23:03;7.60;;;5.60;;
39996;SDS011;25688;52.338;21.072;2022-08-21T08:25:29;8.95;;;6.03;;
39996;SDS011;25688;52.338;21.072;2022-08-21T08:27:54;7.50;;;5.35;;
39996;SDS011;25688;52.338;21.072;2022-08-21T08:30:21;7.93;;;5.00;;
39996;SDS011;25688;52.338;21.072;2022-08-21T08:32:48;13.00;;;6.07;;
39996;SDS011;25688;52.338;21.072;2022-08-21T08:35:15;9.82;;;6.68;;
39996;SDS011;25688;52.338;21.072;2022-08-21T08:37:44;7.60;;;5.15;;
39996;SDS011;25688;52.338;21.072;2022-08-21T08:40:22;8.93;;;5.25;;
39996;SDS011;25688;52.338;21.072;2022-08-21T08:43:01;8.33;;;5.10;;
39996;SDS011;25688;52.338;21.072;2022-08-21T08:45:26;9.57;;;5.15;;
39996;SDS011;25688;52.338;21.072;2022-08-21T08:47:58;6.07;;;5.00;;
39996;SDS011;25688;52.338;21.072;2022-08-21T08:53:17;7.38;;;5.05;;
39996;SDS011;25688;52.338;21.072;2022-08-21T08:55:47;7.38;;;4.82;;
39996;SDS011;25688;52.338;21.072;2022-08-21T08:58:27;7.38;;;4.70;;
39996;SDS011;25688;52.338;21.072;2022-08-21T09:00:55;5.18;;;3.85;;
39996;SDS011;25688;52.338;21.072;2022-08-21T09:03:36;10.48;;;5.13;;
39996;SDS011;25688;52.338;21.072;2022-08-21T09:06:06;7.07;;;4.80;;
39996;SDS011;25688;52.338;21.072;2022-08-21T09:09:02;5.57;;;4.25;;
39996;SDS011;25688;52.338;21.072;2022-08-21T09:14:16;6.75;;;5.07;;
39996;SDS011;25688;52.338;21.072;2022-08-21T09:27:07;7.25;;;5.05;;
39996;SDS011;25688;52.338;21.072;2022-08-21T09:29:39;7.80;;;4.90;;
39996;SDS011;25688;52.338;21.072;2022-08-21T09:32:29;7.93;;;4.20;;
39996;SDS011;25688;52.338;21.072;2022-08-21T09:37:51;7.28;;;4.85;;
39996;SDS011;25688;52.338;21.072;2022-08-21T09:42:58;7.03;;;4.47;;
39996;SDS011;25688;52.338;21.072;2022-08-21T09:45:26;8.40;;;4.38;;
39996;SDS011;25688;52.338;21.072;2022-08-21T09:48:45;5.18;;;3.63;;
39996;SDS011;25688;52.338;21.072;2022-08-21T09:50:49;6.50;;;3.97;;
39996;SDS011;25688;52.338;21.072;2022-08-21T09:53:38;7.38;;;3.78;;
39996;SDS011;25688;52.338;21.072;2022-08-21T09:56:16;6.18;;;3.53;;
39996;SDS011;25688;52.338;21.072;2022-08-21T10:02:32;6.65;;;3.60;;
39996;SDS011;25688;52.338;21.072;2022-08-21T10:05:15;7.72;;;3.58;;
39996;SDS011;25688;52.338;21.072;2022-08-21T10:08:19;5.93;;;3.83;;
39996;SDS011;25688;52.338;21.072;2022-08-21T10:10:49;6.75;;;3.60;;
39996;SDS011;25688;52.338;21.072;2022-08-21T10:13:42;7.00;;;3.30;;
39996;SDS011;25688;52.338;21.072;2022-08-21T10:19:24;7.65;;;4.10;;
39996;SDS011;25688;52.338;21.072;2022-08-21T10:24:42;5.78;;;3.47;;
39996;SDS011;25688;52.338;21.072;2022-08-21T10:30:02;8.10;;;3.70;;
39996;SDS011;25688;52.338;21.072;2022-08-21T10:47:02;6.95;;;3.75;;
39996;SDS011;25688;52.338;21.072;2022-08-21T10:49:41;5.82;;;3.40;;
39996;SDS011;25688;52.338;21.072;2022-08-21T10:52:15;8.32;;;3.65;;
39996;SDS011;25688;52.338;21.072;2022-08-21T10:55:00;4.90;;;3.20;;
